F/V Jeremi Simon — FHAF — position and weather

sailwx.info

Track history (hours):
 
Tides and Currents Weather Stations Pressure Air Temp Water Temp Dewpoint Dewpoint Depression Visibility Wind Speed Wind Dir Waves Ship Positions

F/V Jeremi Simon

Last reported at 2017-Jun-26 03:30 UTC. Time now 2017-Jun-26 03:43 UTC.
Position N 46°51' W 002°19'.

Length 20 m.

Type: Other ship. MMSI: 227415000.

Date/timePositionNaut miles runAvg speedWind from/ knotsBaromVisibWave heightAir tempDewpointWater temp
2017-Jun-26 03:30N 46°51' W 002°19'5 9.5
2017-Jun-26 02:58N 46°46' W 002°15'4 9.5
2017-Jun-26 02:30N 46°44' W 002°09'5 9.9
2017-Jun-26 02:00N 46°42' W 002°03'4 8.2
2017-Jun-26 01:30N 46°42' W 001°57'0 0.4
2017-Jun-26 01:00N 46°42' W 001°57'0 0.0
2017-Jun-25 16:25N 46°42' W 001°57'0 0.2
2017-Jun-25 16:00N 46°42' W 001°56'0 0.0
2017-Jun-25 15:30N 46°42' W 001°56'0 0.0
2017-Jun-25 15:00N 46°42' W 001°56'4 8.1
2017-Jun-25 14:29N 46°42' W 002°02'1210.0
2017-Jun-25 13:19N 46°49' W 002°17'410.0
2017-Jun-25 12:58N 46°52' W 002°19'4 9.3
2017-Jun-25 12:30N 46°56' W 002°22'5 9.2
2017-Jun-25 11:59N 47°00' W 002°25'4 9.0
2017-Jun-25 11:30N 47°04' W 002°26'5 9.1
2017-Jun-25 11:00N 47°09' W 002°27'0 0.8
2017-Jun-25 10:30N 47°09' W 002°27'2 3.4
2017-Jun-25 10:00N 47°08' W 002°30'2 3.7
2017-Jun-25 09:28N 47°07' W 002°32'0 0.9
2017-Jun-25 08:54N 47°07' W 002°31'0 0.8
2017-Jun-25 08:30N 47°07' W 002°31'1 1.1
2017-Jun-25 08:00N 47°07' W 002°30'1 1.1
2017-Jun-25 07:30N 47°08' W 002°30'0 0.8
2017-Jun-25 07:00N 47°08' W 002°29'1 1.1
2017-Jun-25 06:29N 47°08' W 002°30'2 4.2
2017-Jun-25 06:00N 47°08' W 002°27'3 4.8
2017-Jun-25 05:27N 47°06' W 002°26'4 9.4
2017-Jun-25 04:59N 47°01' W 002°25'4 9.3
2017-Jun-25 04:30N 46°57' W 002°24'7 9.0
2017-Jun-25 03:46N 46°51' W 002°19'3 9.0
2017-Jun-25 03:25N 46°49' W 002°17'4 8.9
2017-Jun-25 02:56N 46°45' W 002°13'4 9.4
2017-Jun-25 02:30N 46°44' W 002°08'5 9.7
2017-Jun-25 02:00N 46°42' W 002°01'3 6.5
2017-Jun-25 01:30N 46°42' W 001°57'0 0.0
2017-Jun-25 01:00N 46°42' W 001°57'0 0.0
2017-Jun-23 14:52N 46°42' W 001°57'0 0.0
2017-Jun-23 14:30N 46°42' W 001°57'0 0.0
2017-Jun-23 07:48N 46°42' W 001°57'0 0.0
2017-Jun-23 07:30N 46°42' W 001°57'0 0.0
2017-Jun-23 07:00N 46°42' W 001°57'0 0.0
2017-Jun-23 06:30N 46°42' W 001°57'0 0.0
2017-Jun-22 17:19N 46°42' W 001°57'0 0.0
2017-Jun-22 17:00N 46°42' W 001°57'0 0.2
2017-Jun-22 16:30N 46°42' W 001°57'0 0.0
2017-Jun-22 16:00N 46°42' W 001°57'0 0.1
2017-Jun-22 15:30N 46°42' W 001°57'0 0.1
2017-Jun-22 15:00N 46°42' W 001°57'10 8.4
2017-Jun-22 13:50N 46°45' W 002°10'410.9
2017-Jun-22 13:27N 46°47' W 002°15'611.3
2017-Jun-22 12:56N 46°52' W 002°20'510.6
2017-Jun-22 12:29N 46°56' W 002°23'510.4
2017-Jun-22 12:00N 47°01' W 002°26'610.2
2017-Jun-22 11:28N 47°06' W 002°29'2 3.4
2017-Jun-22 10:59N 47°07' W 002°30'0 0.9
2017-Jun-22 10:31N 47°08' W 002°30'2 3.2
2017-Jun-22 10:00N 47°09' W 002°29'1 2.6
2017-Jun-22 09:30N 47°08' W 002°27'2 3.0
2017-Jun-22 08:59N 47°09' W 002°25'1 1.8
2017-Jun-22 08:31N 47°09' W 002°26'0 0.7
2017-Jun-22 08:00N 47°09' W 002°26'0 0.6
2017-Jun-22 07:30N 47°09' W 002°26'0 0.7
2017-Jun-22 07:00N 47°09' W 002°25'1 2.6
2017-Jun-22 06:30N 47°08' W 002°25'0 0.5
2017-Jun-22 06:00N 47°08' W 002°25'1 2.9
2017-Jun-22 05:31N 47°07' W 002°25'5 9.0
2017-Jun-22 05:00N 47°02' W 002°26'4 8.9
2017-Jun-22 04:30N 46°58' W 002°27'4 8.6
2017-Jun-22 04:00N 46°54' W 002°25'5 9.6
2017-Jun-22 03:30N 46°50' W 002°20'5 9.5
2017-Jun-22 03:00N 46°47' W 002°16'5 9.1
2017-Jun-22 02:31N 46°44' W 002°10'5 9.9
2017-Jun-22 02:01N 46°42' W 002°03'4 8.7
2017-Jun-22 01:30N 46°42' W 001°57'1 1.1
2017-Jun-22 01:01N 46°42' W 001°56'0 0.0
2017-Jun-21 14:11N 46°42' W 001°56'0 0.1
2017-Jun-21 13:30N 46°42' W 001°57'0 0.0
2017-Jun-21 13:00N 46°42' W 001°57'1 1.9
2017-Jun-21 12:30N 46°41' W 001°58'510.3
2017-Jun-21 12:00N 46°43' W 002°05'510.7
2017-Jun-21 11:30N 46°45' W 002°12'510.4
2017-Jun-21 11:00N 46°49' W 002°16'510.1
2017-Jun-21 10:30N 46°53' W 002°20'510.1
2017-Jun-21 10:00N 46°57' W 002°24'5 9.3
2017-Jun-21 09:30N 47°02' W 002°26'510.7
2017-Jun-21 09:00N 47°07' W 002°24'2 4.5
2017-Jun-21 08:30N 47°09' W 002°24'2 3.6
2017-Jun-21 08:00N 47°08' W 002°24'2 3.7
2017-Jun-21 07:30N 47°09' W 002°25'1 1.2
2017-Jun-21 07:00N 47°10' W 002°25'0 0.4
2017-Jun-21 06:30N 47°10' W 002°25'2 3.1
2017-Jun-21 06:00N 47°08' W 002°25'1 1.6
2017-Jun-21 05:31N 47°08' W 002°25'5 9.6
2017-Jun-21 05:00N 47°03' W 002°27'5 9.3
2017-Jun-21 04:30N 46°58' W 002°28'5 9.3
2017-Jun-21 04:01N 46°54' W 002°26'510.0
2017-Jun-21 03:31N 46°50' W 002°21'510.2
2017-Jun-21 03:00N 46°46' W 002°16'5 9.7
2017-Jun-21 02:30N 46°44' W 002°10'510.4
2017-Jun-21 02:00N 46°42' W 002°03'4 8.4
2017-Jun-21 01:30N 46°42' W 001°57'0 0.2
2017-Jun-21 01:00N 46°42' W 001°57'0 0.0
2017-Jun-20 17:25N 46°42' W 001°57'0 0.0
2017-Jun-20 17:00N 46°42' W 001°57'0 0.0
2017-Jun-20 16:30N 46°42' W 001°57'0 0.0
2017-Jun-20 16:00N 46°42' W 001°57'0 0.6
2017-Jun-20 15:30N 46°42' W 001°57'4 8.9
2017-Jun-20 15:00N 46°42' W 002°03'510.4
2017-Jun-20 14:30N 46°45' W 002°10'1110.6
2017-Jun-20 13:30N 46°53' W 002°20'510.8
2017-Jun-20 13:00N 46°57' W 002°24'510.7
2017-Jun-20 12:30N 47°03' W 002°24'510.6
2017-Jun-20 12:00N 47°08' W 002°21'1 2.2
2017-Jun-20 11:28N 47°08' W 002°23'0 0.1
2017-Jun-20 11:00N 47°08' W 002°23'1 1.1
2017-Jun-20 10:30N 47°08' W 002°22'0 0.7
2017-Jun-20 10:00N 47°08' W 002°22'0 0.7
2017-Jun-20 09:30N 47°08' W 002°23'0 0.5
2017-Jun-20 09:00N 47°08' W 002°23'1 1.4
2017-Jun-20 08:30N 47°08' W 002°24'2 4.5
2017-Jun-20 08:00N 47°09' W 002°27'2 3.1
2017-Jun-20 07:30N 47°08' W 002°29'5 9.4
2017-Jun-20 07:00N 47°08' W 002°36'3 5.1
2017-Jun-20 06:30N 47°06' W 002°36'5 9.2
2017-Jun-20 06:00N 47°02' W 002°34'5 9.2
2017-Jun-20 05:30N 46°57' W 002°33'5 9.1
2017-Jun-20 05:00N 46°52' W 002°32'5 9.4
2017-Jun-20 04:30N 46°49' W 002°27'510.0
2017-Jun-20 04:00N 46°46' W 002°21'510.1
2017-Jun-20 03:30N 46°45' W 002°14'510.0
2017-Jun-20 03:00N 46°43' W 002°07'510.1
2017-Jun-20 02:30N 46°41' W 002°00'3 5.1
2017-Jun-20 02:00N 46°42' W 001°57'0 0.0
2017-Jun-19 20:51N 46°42' W 001°57'0 0.2
2017-Jun-19 20:30N 46°42' W 001°56'0 0.0
2017-Jun-19 20:00N 46°42' W 001°56'4 7.2
2017-Jun-19 19:30N 46°41' W 002°02'510.0
2017-Jun-19 18:59N 46°43' W 002°09'27 6.4
2017-Jun-19 14:51N 47°02' W 002°36'1 2.1
2017-Jun-19 14:18N 47°01' W 002°35'10 1.1
2017-Jun-19 04:45N 46°51' W 002°31'1 4.7
2017-Jun-19 04:29N 46°50' W 002°30'5 6.7
2017-Jun-19 03:47N 46°48' W 002°24'3 9.3
2017-Jun-19 03:25N 46°46' W 002°20'4 9.3
2017-Jun-19 03:00N 46°44' W 002°15'5 9.2
2017-Jun-19 02:30N 46°43' W 002°09'5 9.0
2017-Jun-19 02:00N 46°42' W 002°02'4 7.9
2017-Jun-19 01:30N 46°42' W 001°57'0 0.0
2017-Jun-18 12:15N 46°42' W 001°57'0 0.2
2017-Jun-18 11:53N 46°42' W 001°56'0 0.0
2017-Jun-18 11:30N 46°42' W 001°56'0 0.6
2017-Jun-18 11:00N 46°42' W 001°57'4 8.7
2017-Jun-18 10:30N 46°42' W 002°03'22 6.2
2017-Jun-18 07:02N 46°50' W 002°32'1 2.6
2017-Jun-18 06:50N 46°51' W 002°32'1 1.8
2017-Jun-18 06:29N 46°50' W 002°32'1 2.4
2017-Jun-18 05:51N 46°52' W 002°32'1 1.6
2017-Jun-18 05:17N 46°51' W 002°31'1 2.2
2017-Jun-18 04:54N 46°50' W 002°31'0 0.1
2017-Jun-18 04:30N 46°50' W 002°31'0 0.1
2017-Jun-18 04:00N 46°50' W 002°31'3 3.4
2017-Jun-18 03:14N 46°49' W 002°27'3 8.8
2017-Jun-18 02:50N 46°47' W 002°23'4 8.9
2017-Jun-18 02:22N 46°45' W 002°18'3 9.1
2017-Jun-18 02:00N 46°44' W 002°13'4 8.8
2017-Jun-18 01:30N 46°43' W 002°07'4 8.6
2017-Jun-18 01:01N 46°41' W 002°01'3 6.1
2017-Jun-18 00:30N 46°42' W 001°57'  
Track history (hours):
 
Tides and Currents Weather Stations Pressure Air Temp Water Temp Dewpoint Dewpoint Depression Visibility Wind Speed Wind Dir Waves Ship Positions

F/V Jeremi Simon

Last reported at 2017-Jun-26 03:30 UTC. Time now 2017-Jun-26 03:43 UTC.
Position N 46°51' W 002°19'.

Length 20 m.

Type: Other ship. MMSI: 227415000.

Date/timePositionNaut miles runAvg speedWind from/ knotsBaromVisibWave heightAir tempDewpointWater temp
2017-Jun-26 03:30N 46°51' W 002°19'5 9.5
2017-Jun-26 02:58N 46°46' W 002°15'4 9.5
2017-Jun-26 02:30N 46°44' W 002°09'5 9.9
2017-Jun-26 02:00N 46°42' W 002°03'4 8.2
2017-Jun-26 01:30N 46°42' W 001°57'0 0.4
2017-Jun-26 01:00N 46°42' W 001°57'0 0.0
2017-Jun-25 16:25N 46°42' W 001°57'0 0.2
2017-Jun-25 16:00N 46°42' W 001°56'0 0.0
2017-Jun-25 15:30N 46°42' W 001°56'0 0.0
2017-Jun-25 15:00N 46°42' W 001°56'4 8.1
2017-Jun-25 14:29N 46°42' W 002°02'1210.0
2017-Jun-25 13:19N 46°49' W 002°17'410.0
2017-Jun-25 12:58N 46°52' W 002°19'4 9.3
2017-Jun-25 12:30N 46°56' W 002°22'5 9.2
2017-Jun-25 11:59N 47°00' W 002°25'4 9.0
2017-Jun-25 11:30N 47°04' W 002°26'5 9.1
2017-Jun-25 11:00N 47°09' W 002°27'0 0.8
2017-Jun-25 10:30N 47°09' W 002°27'2 3.4
2017-Jun-25 10:00N 47°08' W 002°30'2 3.7
2017-Jun-25 09:28N 47°07' W 002°32'0 0.9
2017-Jun-25 08:54N 47°07' W 002°31'0 0.8
2017-Jun-25 08:30N 47°07' W 002°31'1 1.1
2017-Jun-25 08:00N 47°07' W 002°30'1 1.1
2017-Jun-25 07:30N 47°08' W 002°30'0 0.8
2017-Jun-25 07:00N 47°08' W 002°29'1 1.1
2017-Jun-25 06:29N 47°08' W 002°30'2 4.2
2017-Jun-25 06:00N 47°08' W 002°27'3 4.8
2017-Jun-25 05:27N 47°06' W 002°26'4 9.4
2017-Jun-25 04:59N 47°01' W 002°25'4 9.3
2017-Jun-25 04:30N 46°57' W 002°24'7 9.0
2017-Jun-25 03:46N 46°51' W 002°19'3 9.0
2017-Jun-25 03:25N 46°49' W 002°17'4 8.9
2017-Jun-25 02:56N 46°45' W 002°13'4 9.4
2017-Jun-25 02:30N 46°44' W 002°08'5 9.7
2017-Jun-25 02:00N 46°42' W 002°01'3 6.5
2017-Jun-25 01:30N 46°42' W 001°57'0 0.0
2017-Jun-25 01:00N 46°42' W 001°57'0 0.0
2017-Jun-23 14:52N 46°42' W 001°57'0 0.0
2017-Jun-23 14:30N 46°42' W 001°57'0 0.0
2017-Jun-23 07:48N 46°42' W 001°57'0 0.0
2017-Jun-23 07:30N 46°42' W 001°57'0 0.0
2017-Jun-23 07:00N 46°42' W 001°57'0 0.0
2017-Jun-23 06:30N 46°42' W 001°57'0 0.0
2017-Jun-22 17:19N 46°42' W 001°57'0 0.0
2017-Jun-22 17:00N 46°42' W 001°57'0 0.2
2017-Jun-22 16:30N 46°42' W 001°57'0 0.0
2017-Jun-22 16:00N 46°42' W 001°57'0 0.1
2017-Jun-22 15:30N 46°42' W 001°57'0 0.1
2017-Jun-22 15:00N 46°42' W 001°57'10 8.4
2017-Jun-22 13:50N 46°45' W 002°10'410.9
2017-Jun-22 13:27N 46°47' W 002°15'611.3
2017-Jun-22 12:56N 46°52' W 002°20'510.6
2017-Jun-22 12:29N 46°56' W 002°23'510.4
2017-Jun-22 12:00N 47°01' W 002°26'610.2
2017-Jun-22 11:28N 47°06' W 002°29'2 3.4
2017-Jun-22 10:59N 47°07' W 002°30'0 0.9
2017-Jun-22 10:31N 47°08' W 002°30'2 3.2
2017-Jun-22 10:00N 47°09' W 002°29'1 2.6
2017-Jun-22 09:30N 47°08' W 002°27'2 3.0
2017-Jun-22 08:59N 47°09' W 002°25'1 1.8
2017-Jun-22 08:31N 47°09' W 002°26'0 0.7
2017-Jun-22 08:00N 47°09' W 002°26'0 0.6
2017-Jun-22 07:30N 47°09' W 002°26'0 0.7
2017-Jun-22 07:00N 47°09' W 002°25'1 2.6
2017-Jun-22 06:30N 47°08' W 002°25'0 0.5
2017-Jun-22 06:00N 47°08' W 002°25'1 2.9
2017-Jun-22 05:31N 47°07' W 002°25'5 9.0
2017-Jun-22 05:00N 47°02' W 002°26'4 8.9
2017-Jun-22 04:30N 46°58' W 002°27'4 8.6
2017-Jun-22 04:00N 46°54' W 002°25'5 9.6
2017-Jun-22 03:30N 46°50' W 002°20'5 9.5
2017-Jun-22 03:00N 46°47' W 002°16'5 9.1
2017-Jun-22 02:31N 46°44' W 002°10'5 9.9
2017-Jun-22 02:01N 46°42' W 002°03'4 8.7
2017-Jun-22 01:30N 46°42' W 001°57'1 1.1
2017-Jun-22 01:01N 46°42' W 001°56'0 0.0
2017-Jun-21 14:11N 46°42' W 001°56'0 0.1
2017-Jun-21 13:30N 46°42' W 001°57'0 0.0
2017-Jun-21 13:00N 46°42' W 001°57'1 1.9
2017-Jun-21 12:30N 46°41' W 001°58'510.3
2017-Jun-21 12:00N 46°43' W 002°05'510.7
2017-Jun-21 11:30N 46°45' W 002°12'510.4
2017-Jun-21 11:00N 46°49' W 002°16'510.1
2017-Jun-21 10:30N 46°53' W 002°20'510.1
2017-Jun-21 10:00N 46°57' W 002°24'5 9.3
2017-Jun-21 09:30N 47°02' W 002°26'510.7
2017-Jun-21 09:00N 47°07' W 002°24'2 4.5
2017-Jun-21 08:30N 47°09' W 002°24'2 3.6
2017-Jun-21 08:00N 47°08' W 002°24'2 3.7
2017-Jun-21 07:30N 47°09' W 002°25'1 1.2
2017-Jun-21 07:00N 47°10' W 002°25'0 0.4
2017-Jun-21 06:30N 47°10' W 002°25'2 3.1
2017-Jun-21 06:00N 47°08' W 002°25'1 1.6
2017-Jun-21 05:31N 47°08' W 002°25'5 9.6
2017-Jun-21 05:00N 47°03' W 002°27'5 9.3
2017-Jun-21 04:30N 46°58' W 002°28'5 9.3
2017-Jun-21 04:01N 46°54' W 002°26'510.0
2017-Jun-21 03:31N 46°50' W 002°21'510.2
2017-Jun-21 03:00N 46°46' W 002°16'5 9.7
2017-Jun-21 02:30N 46°44' W 002°10'510.4
2017-Jun-21 02:00N 46°42' W 002°03'4 8.4
2017-Jun-21 01:30N 46°42' W 001°57'0 0.2
2017-Jun-21 01:00N 46°42' W 001°57'0 0.0
2017-Jun-20 17:25N 46°42' W 001°57'0 0.0
2017-Jun-20 17:00N 46°42' W 001°57'0 0.0
2017-Jun-20 16:30N 46°42' W 001°57'0 0.0
2017-Jun-20 16:00N 46°42' W 001°57'0 0.6
2017-Jun-20 15:30N 46°42' W 001°57'4 8.9
2017-Jun-20 15:00N 46°42' W 002°03'510.4
2017-Jun-20 14:30N 46°45' W 002°10'1110.6
2017-Jun-20 13:30N 46°53' W 002°20'510.8
2017-Jun-20 13:00N 46°57' W 002°24'510.7
2017-Jun-20 12:30N 47°03' W 002°24'510.6
2017-Jun-20 12:00N 47°08' W 002°21'1 2.2
2017-Jun-20 11:28N 47°08' W 002°23'0 0.1
2017-Jun-20 11:00N 47°08' W 002°23'1 1.1
2017-Jun-20 10:30N 47°08' W 002°22'0 0.7
2017-Jun-20 10:00N 47°08' W 002°22'0 0.7
2017-Jun-20 09:30N 47°08' W 002°23'0 0.5
2017-Jun-20 09:00N 47°08' W 002°23'1 1.4
2017-Jun-20 08:30N 47°08' W 002°24'2 4.5
2017-Jun-20 08:00N 47°09' W 002°27'2 3.1
2017-Jun-20 07:30N 47°08' W 002°29'5 9.4
2017-Jun-20 07:00N 47°08' W 002°36'3 5.1
2017-Jun-20 06:30N 47°06' W 002°36'5 9.2
2017-Jun-20 06:00N 47°02' W 002°34'5 9.2
2017-Jun-20 05:30N 46°57' W 002°33'5 9.1
2017-Jun-20 05:00N 46°52' W 002°32'5 9.4
2017-Jun-20 04:30N 46°49' W 002°27'510.0
2017-Jun-20 04:00N 46°46' W 002°21'510.1
2017-Jun-20 03:30N 46°45' W 002°14'510.0
2017-Jun-20 03:00N 46°43' W 002°07'510.1
2017-Jun-20 02:30N 46°41' W 002°00'3 5.1
2017-Jun-20 02:00N 46°42' W 001°57'0 0.0
2017-Jun-19 20:51N 46°42' W 001°57'0 0.2
2017-Jun-19 20:30N 46°42' W 001°56'0 0.0
2017-Jun-19 20:00N 46°42' W 001°56'4 7.2
2017-Jun-19 19:30N 46°41' W 002°02'510.0
2017-Jun-19 18:59N 46°43' W 002°09'27 6.4
2017-Jun-19 14:51N 47°02' W 002°36'1 2.1
2017-Jun-19 14:18N 47°01' W 002°35'10 1.1
2017-Jun-19 04:45N 46°51' W 002°31'1 4.7
2017-Jun-19 04:29N 46°50' W 002°30'5 6.7
2017-Jun-19 03:47N 46°48' W 002°24'3 9.3
2017-Jun-19 03:25N 46°46' W 002°20'4 9.3
2017-Jun-19 03:00N 46°44' W 002°15'5 9.2
2017-Jun-19 02:30N 46°43' W 002°09'5 9.0
2017-Jun-19 02:00N 46°42' W 002°02'4 7.9
2017-Jun-19 01:30N 46°42' W 001°57'0 0.0
2017-Jun-18 12:15N 46°42' W 001°57'0 0.2
2017-Jun-18 11:53N 46°42' W 001°56'0 0.0
2017-Jun-18 11:30N 46°42' W 001°56'0 0.6
2017-Jun-18 11:00N 46°42' W 001°57'4 8.7
2017-Jun-18 10:30N 46°42' W 002°03'22 6.2
2017-Jun-18 07:02N 46°50' W 002°32'1 2.6
2017-Jun-18 06:50N 46°51' W 002°32'1 1.8
2017-Jun-18 06:29N 46°50' W 002°32'1 2.4
2017-Jun-18 05:51N 46°52' W 002°32'1 1.6
2017-Jun-18 05:17N 46°51' W 002°31'1 2.2
2017-Jun-18 04:54N 46°50' W 002°31'0 0.1
2017-Jun-18 04:30N 46°50' W 002°31'0 0.1
2017-Jun-18 04:00N 46°50' W 002°31'3 3.4
2017-Jun-18 03:14N 46°49' W 002°27'3 8.8
2017-Jun-18 02:50N 46°47' W 002°23'4 8.9
2017-Jun-18 02:22N 46°45' W 002°18'3 9.1
2017-Jun-18 02:00N 46°44' W 002°13'4 8.8
2017-Jun-18 01:30N 46°43' W 002°07'4 8.6
2017-Jun-18 01:01N 46°41' W 002°01'3 6.1
2017-Jun-18 00:30N 46°42' W 001°57'  

Dump ship's entire track history